createdAt,value
2019-02-23T00:00:29.088Z,100925.93
2019-02-23T00:02:54.977Z,100929.52
2019-02-23T00:05:23.906Z,100924.25
2019-02-23T00:07:49.863Z,100922.48
2019-02-23T00:10:15.782Z,100921.61
2019-02-23T00:12:41.768Z,100923.59
2019-02-23T00:15:08.211Z,100921.87
2019-02-23T00:17:34.233Z,100926.28
2019-02-23T00:20:00.309Z,100927.09
2019-02-23T00:22:26.213Z,100929.83
2019-02-23T00:24:52.105Z,100930.80
2019-02-23T00:27:17.935Z,100929.11
2019-02-23T00:29:43.772Z,100934.75
2019-02-23T00:32:09.655Z,100936.61
2019-02-23T00:34:35.503Z,100936.88
2019-02-23T00:37:01.324Z,100940.63
2019-02-23T00:39:27.217Z,100939.77
2019-02-23T00:41:53.069Z,100944.57
2019-02-23T00:44:18.932Z,100944.64
2019-02-23T00:46:44.792Z,100941.19
2019-02-23T00:49:10.681Z,100942.97
2019-02-23T00:51:36.578Z,100951.34
2019-02-23T00:54:02.589Z,100946.07
2019-02-23T00:56:28.526Z,100949.20
2019-02-23T00:58:54.414Z,100955.80
2019-02-23T01:01:20.275Z,100958.85
2019-02-23T01:03:46.124Z,100958.84
2019-02-23T01:06:11.974Z,100947.84
2019-02-23T01:08:37.841Z,100953.66
2019-02-23T01:11:03.770Z,100959.34
2019-02-23T01:13:29.663Z,100964.57
2019-02-23T01:15:58.347Z,100964.17
2019-02-23T01:18:23.441Z,100965.07
2019-02-23T01:20:50.167Z,100960.25
2019-02-23T01:23:16.003Z,100961.12
2019-02-23T01:25:41.821Z,100966.80
2019-02-23T01:28:07.791Z,100954.11
2019-02-23T01:30:33.832Z,100953.25
2019-02-23T01:32:59.792Z,100955.02
2019-02-23T01:35:25.626Z,100956.75
2019-02-23T01:37:51.563Z,100952.38
2019-02-23T01:40:17.537Z,100955.13
2019-02-23T01:42:43.490Z,100959.52
2019-02-23T01:45:09.723Z,100962.55
2019-02-23T01:47:35.689Z,100974.88
2019-02-23T01:50:02.311Z,100984.08
2019-02-23T01:52:28.188Z,100993.35
2019-02-23T01:54:54.116Z,100998.55
2019-02-23T01:57:20.186Z,100986.13
2019-02-23T01:59:46.058Z,100992.41
2019-02-23T02:02:13.629Z,100999.45
2019-02-23T02:04:39.657Z,101003.90
2019-02-23T02:07:05.849Z,101007.41
2019-02-23T02:09:31.783Z,101019.31
2019-02-23T02:11:57.724Z,101017.09
2019-02-23T02:14:23.830Z,101016.63
2019-02-23T02:16:49.898Z,101015.33
2019-02-23T02:19:15.947Z,101028.95
2019-02-23T02:21:42.006Z,101044.30
2019-02-23T02:24:07.857Z,101037.72
2019-02-23T02:26:33.714Z,101041.61
2019-02-23T02:28:59.542Z,101039.91
2019-02-23T02:31:25.530Z,101043.24
2019-02-23T02:34:06.498Z,101044.66
2019-02-23T02:36:32.363Z,101046.67
2019-02-23T02:38:58.266Z,101062.19
2019-02-23T02:41:24.163Z,101055.31
2019-02-23T02:43:50.799Z,101054.98
2019-02-23T02:46:16.617Z,101067.51
2019-02-23T02:48:42.669Z,101069.86
2019-02-23T02:51:08.553Z,101074.87
2019-02-23T02:53:34.474Z,101110.50
2019-02-23T02:56:00.312Z,101095.21
2019-02-23T02:58:26.177Z,101100.93
2019-02-23T03:00:52.034Z,101088.05
2019-02-23T03:03:17.888Z,101102.25
2019-02-23T03:05:43.721Z,101097.05
2019-02-23T03:08:09.682Z,101112.00
2019-02-23T03:10:35.641Z,101128.45
2019-02-23T03:13:01.600Z,101132.86
2019-02-23T03:15:27.552Z,101147.86
2019-02-23T03:17:53.513Z,101139.92
2019-02-23T03:20:19.387Z,101134.63
2019-02-23T03:22:45.255Z,101151.47
2019-02-23T03:25:11.288Z,101147.52
2019-02-23T03:27:37.165Z,101155.98
2019-02-23T03:30:05.671Z,101159.13
2019-02-23T03:32:31.610Z,101157.39
2019-02-23T03:34:57.440Z,101163.13
2019-02-23T03:37:23.332Z,101173.27
2019-02-23T03:39:49.264Z,101176.35
2019-02-23T03:42:15.298Z,101176.77
2019-02-23T03:44:41.169Z,101183.78
2019-02-23T03:47:07.135Z,101204.55
2019-02-23T03:49:33.124Z,101204.13
2019-02-23T03:51:59.073Z,101206.77
2019-02-23T03:54:25.077Z,101204.55
2019-02-23T03:56:50.971Z,101220.86
2019-02-23T03:59:16.954Z,101215.05
2019-02-23T04:01:43.342Z,101224.27
2019-02-23T04:04:09.268Z,101223.45
2019-02-23T04:06:35.379Z,101229.19
2019-02-23T04:09:02.817Z,101238.00
2019-02-23T04:11:28.949Z,101246.80
2019-02-23T04:13:54.796Z,101246.80
2019-02-23T04:16:20.730Z,101248.09
2019-02-23T04:18:46.790Z,101247.22
2019-02-23T04:21:12.625Z,101252.48
2019-02-23T04:23:38.626Z,101252.48
2019-02-23T04:26:04.616Z,101254.24
2019-02-23T04:28:30.467Z,101252.94
2019-02-23T04:30:56.323Z,101267.01
2019-02-23T04:33:22.160Z,101269.22
2019-02-23T04:35:48.097Z,101278.42
2019-02-23T04:38:14.060Z,101275.36
2019-02-23T04:40:39.951Z,101276.67
2019-02-23T04:43:05.966Z,101266.54
2019-02-23T04:45:31.920Z,101266.95
2019-02-23T04:47:57.853Z,101290.67
2019-02-23T04:50:23.847Z,101280.63
2019-02-23T04:52:50.336Z,101283.72
2019-02-23T04:55:16.502Z,101276.23
2019-02-23T04:57:42.382Z,101286.73
2019-02-23T05:00:13.467Z,101286.32
2019-02-23T05:02:39.410Z,101299.44
2019-02-23T05:05:06.168Z,101304.27
2019-02-23T05:07:32.046Z,101302.91
2019-02-23T05:09:59.031Z,101309.05
2019-02-23T05:12:24.865Z,101311.73
2019-02-23T05:14:50.896Z,101318.30
2019-02-23T05:17:16.953Z,101326.63
2019-02-23T05:19:42.819Z,101324.88
2019-02-23T05:22:08.798Z,101334.58
2019-02-23T05:24:34.660Z,101330.09
2019-02-23T05:27:00.626Z,101339.70
2019-02-23T05:29:26.585Z,101336.63
2019-02-23T05:31:52.446Z,101343.22
2019-02-23T05:34:18.425Z,101347.63
2019-02-23T05:36:44.260Z,101337.86
2019-02-23T05:39:10.442Z,101333.06
2019-02-23T05:41:36.406Z,101337.50
2019-02-23T05:44:02.471Z,101362.85
2019-02-23T05:46:28.921Z,101358.01
2019-02-23T05:48:55.016Z,101368.16
2019-02-23T05:51:20.879Z,101361.98
2019-02-23T05:53:47.085Z,101372.48
2019-02-23T05:56:16.224Z,101377.89
2019-02-23T05:58:40.675Z,101388.34
2019-02-23T06:01:06.564Z,101389.56
2019-02-23T06:03:32.590Z,101393.97
2019-02-23T06:05:58.421Z,101408.52
2019-02-23T06:08:24.437Z,101415.57
2019-02-23T06:10:50.261Z,101420.36
2019-02-23T06:13:16.109Z,101418.20
2019-02-23T06:15:41.988Z,101426.47
2019-02-23T06:18:07.845Z,101432.92
2019-02-23T06:20:33.787Z,101442.73
2019-02-23T06:22:59.981Z,101448.44
2019-02-23T06:25:26.085Z,101451.07
2019-02-23T06:27:51.921Z,101457.72
2019-02-23T06:30:18.509Z,101458.20
2019-02-23T06:32:44.571Z,101470.59
2019-02-23T06:35:10.621Z,101473.63
2019-02-23T06:37:36.769Z,101465.32
2019-02-23T06:40:05.256Z,101458.25
2019-02-23T06:42:31.096Z,101462.56
2019-02-23T06:44:57.078Z,101467.46
2019-02-23T06:47:23.135Z,101489.08
2019-02-23T06:49:49.067Z,101493.95
2019-02-23T06:52:15.082Z,101501.99
2019-02-23T06:54:40.970Z,101490.98
2019-02-23T06:57:06.926Z,101496.73
2019-02-23T06:59:32.874Z,101501.20
2019-02-23T07:01:58.742Z,101466.33
2019-02-23T07:04:24.574Z,101502.58
2019-02-23T07:06:50.426Z,101523.28
2019-02-23T07:09:16.462Z,101519.80
2019-02-23T07:11:42.449Z,101533.84
2019-02-23T07:14:08.417Z,101530.28
2019-02-23T07:16:34.377Z,101543.55
2019-02-23T07:19:00.359Z,101546.22
2019-02-23T07:21:26.293Z,101549.27
2019-02-23T07:23:52.135Z,101535.98
2019-02-23T07:26:18.176Z,101547.49
2019-02-23T07:28:44.134Z,101549.73
2019-02-23T07:31:10.014Z,101553.31
2019-02-23T07:33:35.856Z,101563.38
2019-02-23T07:36:01.694Z,101574.89
2019-02-23T07:38:27.539Z,101575.72
2019-02-23T07:40:53.771Z,101582.31
2019-02-23T07:43:19.721Z,101577.49
2019-02-23T07:45:45.543Z,101585.48
2019-02-23T07:48:11.547Z,101579.25
2019-02-23T07:50:37.529Z,101573.48
2019-02-23T07:53:03.585Z,101586.89
2019-02-23T07:55:29.544Z,101590.82
2019-02-23T07:57:55.461Z,101590.85
2019-02-23T08:00:21.460Z,101585.95
2019-02-23T08:02:47.328Z,101599.23
2019-02-23T08:05:13.335Z,101583.32
2019-02-23T08:07:40.070Z,101592.53
2019-02-23T08:10:08.817Z,101596.97
2019-02-23T08:12:34.816Z,101596.09
2019-02-23T08:15:00.787Z,101601.41
2019-02-23T08:17:26.618Z,101607.50
2019-02-23T08:19:52.516Z,101606.66
2019-02-23T08:22:18.510Z,101595.55
2019-02-23T08:24:44.348Z,101608.92
2019-02-23T08:27:10.174Z,101608.47
2019-02-23T08:29:36.173Z,101614.66
2019-02-23T08:32:02.246Z,101612.02
2019-02-23T08:34:28.188Z,101615.95
2019-02-23T08:36:54.036Z,101631.29
2019-02-23T08:39:19.917Z,101627.34
2019-02-23T08:41:45.899Z,101636.11
2019-02-23T08:44:11.971Z,101642.70
2019-02-23T08:46:37.839Z,101631.13
2019-02-23T08:49:03.875Z,101629.80
2019-02-23T08:51:29.752Z,101633.67
2019-02-23T08:53:56.029Z,101627.10
2019-02-23T08:56:21.858Z,101624.55
2019-02-23T08:58:47.730Z,101634.63
2019-02-23T09:01:13.576Z,101629.14
2019-02-23T09:06:05.471Z,101639.09
2019-02-23T09:08:31.408Z,101647.75
2019-02-23T09:10:57.250Z,101641.16
2019-02-23T09:13:23.173Z,101642.27
2019-02-23T09:15:49.111Z,101639.66
2019-02-23T09:18:15.153Z,101647.17
2019-02-23T09:20:41.010Z,101643.45
2019-02-23T09:23:06.981Z,101642.49
2019-02-23T09:25:32.948Z,101640.20
2019-02-23T09:27:58.932Z,101645.09
2019-02-23T09:30:24.892Z,101640.53
2019-02-23T09:32:50.951Z,101640.84
2019-02-23T09:35:17.036Z,101646.38
2019-02-23T09:37:42.928Z,101647.01
2019-02-23T09:40:11.694Z,101644.67
2019-02-23T09:42:37.862Z,101650.75
2019-02-23T09:45:07.905Z,101660.02
2019-02-23T09:47:33.685Z,101661.95
2019-02-23T09:49:59.749Z,101667.84
2019-02-23T09:52:25.657Z,101662.94
2019-02-23T09:54:51.545Z,101665.25
2019-02-23T09:57:17.538Z,101660.35
2019-02-23T09:59:43.477Z,101660.43
2019-02-23T10:02:09.534Z,101654.28
2019-02-23T10:04:35.412Z,101678.97
2019-02-23T10:07:01.381Z,101663.09
2019-02-23T10:09:27.216Z,101670.63
2019-02-23T10:11:53.095Z,101660.44
2019-02-23T10:14:18.977Z,101669.72
2019-02-23T10:16:44.829Z,101668.39
2019-02-23T10:19:10.894Z,101678.55
2019-02-23T10:21:36.896Z,101684.25
2019-02-23T10:24:02.956Z,101685.55
2019-02-23T10:26:28.840Z,101668.36
2019-02-23T10:28:54.671Z,101686.05
2019-02-23T10:31:20.576Z,101676.75
2019-02-23T10:33:47.850Z,101678.09
2019-02-23T10:36:14.030Z,101678.05
2019-02-23T10:38:40.288Z,101684.23
2019-02-23T10:41:06.493Z,101681.55
2019-02-23T10:43:32.325Z,101673.61
2019-02-23T10:45:58.411Z,101671.86
2019-02-23T10:48:24.481Z,101678.45
2019-02-23T10:50:50.395Z,101683.30
2019-02-23T10:53:16.264Z,101681.15
2019-02-23T10:55:45.850Z,101668.73
2019-02-23T10:58:11.694Z,101672.29
2019-02-23T11:00:37.632Z,101665.67
2019-02-23T11:03:03.785Z,101672.35
2019-02-23T11:05:29.873Z,101667.89
2019-02-23T11:07:56.021Z,101663.47
2019-02-23T11:10:22.719Z,101664.42
2019-02-23T11:12:48.748Z,101666.14
2019-02-23T11:15:15.952Z,101680.27
2019-02-23T11:17:41.983Z,101667.08
2019-02-23T11:20:09.372Z,101656.05
2019-02-23T11:22:35.496Z,101662.66
2019-02-23T11:25:01.516Z,101661.75
2019-02-23T11:27:27.462Z,101655.57
2019-02-23T11:29:53.493Z,101656.86
2019-02-23T11:32:19.462Z,101644.98
2019-02-23T11:34:45.296Z,101648.53
2019-02-23T11:37:11.354Z,101638.78
2019-02-23T11:39:37.353Z,101639.70
2019-02-23T11:42:03.400Z,101630.87
2019-02-23T11:44:29.228Z,101628.25
2019-02-23T11:47:02.275Z,101618.58
2019-02-23T11:49:22.831Z,101619.41
2019-02-23T11:51:48.742Z,101619.42
2019-02-23T11:54:14.652Z,101627.44
2019-02-23T11:56:40.792Z,101621.70
2019-02-23T11:59:06.724Z,101620.34
2019-02-23T12:01:32.711Z,101602.20
2019-02-23T12:03:58.598Z,101591.56
2019-02-23T12:06:24.660Z,101581.52
2019-02-23T12:08:50.501Z,101591.70
2019-02-23T12:11:16.433Z,101593.40
2019-02-23T12:13:42.496Z,101596.92
2019-02-23T12:16:08.416Z,101596.94
2019-02-23T12:18:34.455Z,101584.13
2019-02-23T12:21:00.417Z,101583.28
2019-02-23T12:23:26.261Z,101589.43
2019-02-23T12:25:52.434Z,101583.20
2019-02-23T12:28:18.266Z,101577.42
2019-02-23T12:30:44.219Z,101574.36
2019-02-23T12:33:10.161Z,101571.85
2019-02-23T12:35:36.032Z,101569.20
2019-02-23T12:38:01.846Z,101579.58
2019-02-23T12:40:27.784Z,101582.86
2019-02-23T12:42:53.707Z,101596.83
2019-02-23T12:45:19.654Z,101593.48
2019-02-23T12:47:45.528Z,101588.37
2019-02-23T12:50:12.137Z,101599.02
2019-02-23T12:52:38.052Z,101595.06
2019-02-23T12:55:06.724Z,101608.45
2019-02-23T12:57:33.147Z,101619.75
2019-02-23T12:59:58.987Z,101613.29
2019-02-23T13:02:24.867Z,101607.02
2019-02-23T13:04:50.809Z,101607.59
2019-02-23T13:07:16.948Z,101619.17
2019-02-23T13:09:43.767Z,101626.84
2019-02-23T13:12:22.485Z,101617.41
2019-02-23T13:14:55.279Z,101617.75
2019-02-23T13:17:33.653Z,101612.99
2019-02-23T13:20:20.861Z,101617.55
2019-02-23T13:22:59.831Z,101617.63
2019-02-23T13:25:38.415Z,101611.41
2019-02-23T13:28:32.118Z,101586.88
2019-02-23T13:31:10.893Z,101561.14
2019-02-23T13:34:04.680Z,101548.73
2019-02-23T13:36:46.670Z,101552.97
2019-02-23T13:39:22.402Z,101557.42
2019-02-23T13:42:10.290Z,101554.59
2019-02-23T13:44:56.904Z,101538.68
2019-02-23T13:47:29.587Z,101542.34
2019-02-23T13:50:15.970Z,101541.09
2019-02-23T13:52:54.684Z,101535.28
2019-02-23T13:55:33.374Z,101540.13
2019-02-23T13:58:18.280Z,101544.23
2019-02-23T14:01:12.184Z,101544.59
2019-02-23T14:03:56.397Z,101543.22
2019-02-23T14:06:26.104Z,101534.91
2019-02-23T14:08:58.930Z,101542.33
2019-02-23T14:11:48.677Z,101544.28
2019-02-23T14:14:18.344Z,101539.37
2019-02-23T14:17:10.719Z,101543.84
2019-02-23T14:19:49.184Z,101549.61
2019-02-23T14:22:52.591Z,101546.30
2019-02-23T14:25:24.920Z,101544.64
2019-02-23T14:28:00.816Z,101547.00
2019-02-23T14:30:42.183Z,101557.47
2019-02-23T14:33:20.658Z,101546.88
2019-02-23T14:35:53.392Z,101557.54
2019-02-23T14:38:25.722Z,101556.92
2019-02-23T14:41:10.371Z,101561.84
2019-02-23T14:44:15.352Z,101567.71
2019-02-23T14:46:53.867Z,101559.70
2019-02-23T14:49:38.776Z,101564.83
2019-02-23T14:52:44.892Z,101556.70
2019-02-23T14:55:20.007Z,101550.30
2019-02-23T14:58:11.975Z,101550.12
2019-02-23T15:00:53.973Z,101551.42
2019-02-23T15:03:43.496Z,101555.52
2019-02-23T15:06:31.605Z,101547.81
2019-02-23T15:09:17.813Z,101556.10
2019-02-23T15:11:56.561Z,101561.07
2019-02-23T15:14:43.255Z,101564.20
2019-02-23T15:17:21.288Z,101571.11
2019-02-23T15:19:54.029Z,101559.75
2019-02-23T15:22:40.428Z,101551.11
2019-02-23T15:25:13.245Z,101558.13
2019-02-23T15:27:41.727Z,101555.77
2019-02-23T15:30:29.973Z,101571.20
2019-02-23T15:33:02.491Z,101570.41
2019-02-23T15:35:35.193Z,101568.78
2019-02-23T15:38:13.821Z,101566.25
2019-02-23T15:41:05.156Z,101566.91
2019-02-23T15:43:34.884Z,101570.38
2019-02-23T15:46:16.723Z,101571.62
2019-02-23T15:48:52.441Z,101573.95
2019-02-23T15:51:18.532Z,101524.38
2019-02-23T15:53:44.561Z,101574.47
2019-02-23T15:56:10.469Z,101582.30
2019-02-23T15:58:36.557Z,101577.42
2019-02-23T16:01:02.813Z,101576.59
2019-02-23T16:03:28.671Z,101571.85
2019-02-23T16:05:54.504Z,101575.80
2019-02-23T16:08:20.577Z,101583.78
2019-02-23T16:10:46.405Z,101578.92
2019-02-23T16:13:12.269Z,101592.63
2019-02-23T16:15:38.239Z,101586.45
2019-02-23T16:18:04.175Z,101581.60
2019-02-23T16:20:30.197Z,101580.73
2019-02-23T16:22:56.085Z,101585.14
2019-02-23T16:25:22.055Z,101589.09
2019-02-23T16:27:47.955Z,101595.25
2019-02-23T16:30:13.917Z,101591.69
2019-02-23T16:32:39.797Z,101587.30
2019-02-23T16:35:06.778Z,101594.75
2019-02-23T16:37:32.821Z,101597.33
2019-02-23T16:39:58.751Z,101594.23
2019-02-23T16:42:24.724Z,101595.95
2019-02-23T16:44:50.587Z,101597.67
2019-02-23T16:47:16.452Z,101592.84
2019-02-23T16:49:42.296Z,101581.78
2019-02-23T16:52:09.272Z,101583.95
2019-02-23T16:54:35.384Z,101582.13
2019-02-23T16:57:01.254Z,101586.09
2019-02-23T16:59:27.182Z,101585.53
2019-02-23T17:01:57.079Z,101596.41
2019-02-23T17:04:23.015Z,101598.56
2019-02-23T17:06:48.853Z,101611.20
2019-02-23T17:09:14.694Z,101597.59
2019-02-23T17:11:40.681Z,101594.48
2019-02-23T17:14:06.511Z,101601.97
2019-02-23T17:16:32.378Z,101600.19
2019-02-23T17:18:58.336Z,101605.72
2019-02-23T17:21:24.277Z,101603.50
2019-02-23T17:23:50.286Z,101610.50
2019-02-23T17:26:16.239Z,101616.30
2019-02-23T17:28:42.261Z,101617.16
2019-02-23T17:31:08.264Z,101624.98
2019-02-23T17:33:34.113Z,101624.41
2019-02-23T17:35:59.960Z,101623.00
2019-02-23T17:38:25.985Z,101626.22
2019-02-23T17:40:52.010Z,101623.91
2019-02-23T17:43:17.897Z,101626.53
2019-02-23T17:45:43.887Z,101624.69
2019-02-23T17:48:09.731Z,101613.20
2019-02-23T17:50:35.624Z,101617.69
2019-02-23T17:53:01.652Z,101623.02
2019-02-23T17:55:27.494Z,101623.39
2019-02-23T17:57:53.351Z,101635.16
2019-02-23T18:00:21.192Z,101633.76
2019-02-23T18:02:47.079Z,101636.84
2019-02-23T18:05:13.196Z,101649.05
2019-02-23T18:07:39.166Z,101652.64
2019-02-23T18:10:05.773Z,101657.04
2019-02-23T18:12:31.808Z,101650.06
2019-02-23T18:14:57.836Z,101649.08
2019-02-23T18:17:23.702Z,101656.81
2019-02-23T18:19:49.745Z,101660.67
2019-02-23T18:22:15.713Z,101659.31
2019-02-23T18:24:41.567Z,101659.63
2019-02-23T18:27:08.541Z,101661.87
2019-02-23T18:29:34.470Z,101660.81
2019-02-23T18:32:00.404Z,101663.09
2019-02-23T18:34:26.330Z,101665.56
2019-02-23T18:36:52.149Z,101661.91
2019-02-23T18:39:18.164Z,101685.94
2019-02-23T18:41:44.019Z,101674.52
2019-02-23T18:44:10.071Z,101678.73
2019-02-23T18:46:35.889Z,101681.03
2019-02-23T18:49:01.817Z,101683.55
2019-02-23T18:51:27.756Z,101681.00
2019-02-23T18:53:53.598Z,101694.55
2019-02-23T18:56:19.676Z,101692.70
2019-02-23T18:58:45.537Z,101700.30
2019-02-23T19:01:11.860Z,101694.58
2019-02-23T19:03:37.759Z,101700.12
2019-02-23T19:06:03.765Z,101702.41
2019-02-23T19:08:29.771Z,101694.11
2019-02-23T19:10:55.888Z,101690.02
2019-02-23T19:13:21.899Z,101694.81
2019-02-23T19:15:47.891Z,101716.05
2019-02-23T19:18:13.800Z,101706.09
2019-02-23T19:20:39.680Z,101706.23
2019-02-23T19:23:05.737Z,101707.37
2019-02-23T19:25:31.637Z,101717.95
2019-02-23T19:27:57.656Z,101723.83
2019-02-23T19:30:23.578Z,101731.84
2019-02-23T19:32:49.552Z,101731.84
2019-02-23T19:35:15.481Z,101740.08
2019-02-23T19:37:41.372Z,101745.25
2019-02-23T19:40:08.351Z,101755.84
2019-02-23T19:42:34.473Z,101758.33
2019-02-23T19:45:00.337Z,101759.83
2019-02-23T19:47:26.403Z,101764.90
2019-02-23T19:49:54.426Z,101761.16
2019-02-23T19:52:20.292Z,101758.38
2019-02-23T19:54:46.155Z,101757.14
2019-02-23T19:57:12.078Z,101764.05
2019-02-23T19:59:38.027Z,101773.50
2019-02-23T20:02:04.497Z,101723.78
2019-02-23T20:04:30.571Z,101777.43
2019-02-23T20:06:56.450Z,101784.39
2019-02-23T20:09:22.596Z,101786.04
2019-02-23T20:11:48.621Z,101790.45
2019-02-23T20:14:14.470Z,101790.06
2019-02-23T20:16:40.353Z,101796.18
2019-02-23T20:19:06.256Z,101801.20
2019-02-23T20:21:32.341Z,101805.50
2019-02-23T20:23:58.631Z,101814.23
2019-02-23T20:26:24.872Z,101805.27
2019-02-23T20:28:51.270Z,101803.52
2019-02-23T20:31:17.291Z,101808.27
2019-02-23T20:33:43.543Z,101809.56
2019-02-23T20:36:10.064Z,101804.48
2019-02-23T20:38:37.026Z,101804.48
2019-02-23T20:41:03.794Z,101810.77
2019-02-23T20:43:30.646Z,101808.41
2019-02-23T20:45:57.729Z,101808.41
2019-02-23T20:48:24.684Z,101813.67
2019-02-23T20:50:51.491Z,101815.86
2019-02-23T20:53:18.488Z,101825.38
2019-02-23T20:55:47.277Z,101828.25
2019-02-23T20:58:14.410Z,101828.25
2019-02-23T21:00:43.095Z,101817.33
2019-02-23T21:03:10.254Z,101817.33
2019-02-23T21:05:37.411Z,101819.17
2019-02-23T21:08:04.487Z,101829.95
2019-02-23T21:10:31.277Z,101826.69
2019-02-23T21:12:58.455Z,101825.19
2019-02-23T21:15:25.460Z,101825.19
2019-02-23T21:17:52.220Z,101846.14
2019-02-23T21:20:18.556Z,101846.14
2019-02-23T21:22:44.911Z,101839.98
2019-02-23T21:25:11.130Z,101835.70
2019-02-23T21:27:37.284Z,101838.61
2019-02-23T21:30:08.262Z,101842.25
2019-02-23T21:32:34.102Z,101842.25
2019-02-23T21:34:59.957Z,101827.64
2019-02-23T21:37:25.801Z,101846.03
2019-02-23T21:39:51.740Z,101837.14
2019-02-23T21:42:17.637Z,101843.84
2019-02-23T21:44:44.472Z,101848.56
2019-02-23T21:47:10.321Z,101858.97
2019-02-23T21:49:36.184Z,101860.87
2019-02-23T21:52:02.149Z,101864.75
2019-02-23T21:54:28.015Z,101864.88
2019-02-23T21:56:53.968Z,101860.95
2019-02-23T21:59:19.975Z,101855.66
2019-02-23T22:01:45.817Z,101859.47
2019-02-23T22:04:11.833Z,101848.73
2019-02-23T22:06:37.723Z,101863.72
2019-02-23T22:09:04.398Z,101869.72
2019-02-23T22:11:30.307Z,101871.80
2019-02-23T22:13:56.117Z,101871.80
2019-02-23T22:16:21.950Z,101881.84
2019-02-23T22:18:47.918Z,101884.38
2019-02-23T22:21:13.860Z,101879.37
2019-02-23T22:23:40.339Z,101877.22
2019-02-23T22:26:06.295Z,101876.00
2019-02-23T22:28:32.161Z,101856.95
2019-02-23T22:30:57.981Z,101864.03
2019-02-23T22:33:23.827Z,101869.44
2019-02-23T22:35:49.837Z,101870.14
2019-02-23T22:38:15.789Z,101869.57
2019-02-23T22:40:41.719Z,101869.57
2019-02-23T22:43:07.563Z,101875.47
2019-02-23T22:45:33.724Z,101877.22
2019-02-23T22:47:59.785Z,101877.26
2019-02-23T22:50:25.721Z,101877.74
2019-02-23T22:52:51.707Z,101880.83
2019-02-23T22:55:17.557Z,101871.59
2019-02-23T22:57:43.425Z,101871.73
2019-02-23T23:00:13.082Z,101878.65
2019-02-23T23:02:38.941Z,101868.24
2019-02-23T23:05:05.090Z,101877.02
2019-02-23T23:07:31.090Z,101876.84
2019-02-23T23:09:56.922Z,101877.73
2019-02-23T23:12:22.759Z,101875.91
2019-02-23T23:14:48.671Z,101883.13
2019-02-23T23:17:14.546Z,101890.34
2019-02-23T23:19:40.412Z,101891.53
2019-02-23T23:22:06.461Z,101881.20
2019-02-23T23:24:32.435Z,101888.67
2019-02-23T23:26:58.387Z,101891.55
2019-02-23T23:29:24.261Z,101898.39
2019-02-23T23:31:50.202Z,101899.19
2019-02-23T23:34:16.039Z,101903.63
2019-02-23T23:36:42.127Z,101903.88
2019-02-23T23:39:08.075Z,101908.59
2019-02-23T23:41:33.937Z,101903.38
2019-02-23T23:43:59.778Z,101905.31
2019-02-23T23:46:25.665Z,101911.59
2019-02-23T23:48:51.615Z,101909.09
2019-02-23T23:51:17.449Z,101920.99
2019-02-23T23:53:43.347Z,101925.81
2019-02-23T23:56:09.289Z,101932.05
2019-02-23T23:58:35.124Z,101934.42
